createdAt,value
2017-03-25T00:00:03.371Z,99.99
2017-03-25T00:05:03.402Z,99.99
2017-03-25T00:10:03.139Z,99.99
2017-03-25T00:15:02.808Z,99.99
2017-03-25T00:20:03.538Z,99.99
2017-03-25T00:25:03.187Z,99.99
2017-03-25T00:30:02.823Z,99.99
2017-03-25T00:35:03.499Z,99.99
2017-03-25T00:40:03.114Z,99.99
2017-03-25T00:45:03.681Z,99.99
2017-03-25T00:50:03.425Z,99.99
2017-03-25T00:55:03.102Z,99.99
2017-03-25T01:00:02.823Z,99.99
2017-03-25T01:05:02.876Z,99.99
2017-03-25T01:10:03.523Z,99.99
2017-03-25T01:15:03.138Z,99.99
2017-03-25T01:20:03.750Z,99.99
2017-03-25T01:25:03.469Z,99.99
2017-03-25T01:30:03.411Z,99.99
2017-03-25T01:35:03.038Z,99.99
2017-03-25T01:40:02.813Z,99.99
2017-03-25T01:45:03.369Z,99.99
2017-03-25T01:50:03.022Z,99.99
2017-03-25T01:55:02.750Z,99.99
2017-03-25T02:00:03.415Z,99.99
2017-03-25T02:05:03.132Z,99.99
2017-03-25T02:10:02.775Z,99.99
2017-03-25T02:15:03.406Z,99.99
2017-03-25T02:20:02.985Z,99.99
2017-03-25T02:25:03.546Z,99.99
2017-03-25T02:30:03.450Z,99.99
2017-03-25T02:35:03.175Z,99.99
2017-03-25T02:40:02.943Z,99.99
2017-03-25T02:45:03.601Z,99.99
2017-03-25T02:50:03.210Z,99.99
2017-03-25T02:55:02.823Z,99.99
2017-03-25T03:00:03.438Z,99.99
2017-03-25T03:05:03.081Z,99.99
2017-03-25T03:10:02.875Z,99.99
2017-03-25T03:15:03.617Z,99.99
2017-03-25T03:20:03.320Z,99.99
2017-03-25T03:25:02.937Z,99.99
2017-03-25T03:30:03.856Z,99.99
2017-03-25T03:35:03.526Z,99.99
2017-03-25T03:40:03.318Z,99.99
2017-03-25T03:45:02.890Z,99.99
2017-03-25T03:50:03.443Z,99.99
2017-03-25T03:55:03.118Z,99.99
2017-03-25T04:00:02.822Z,99.99
2017-03-25T04:05:03.536Z,99.99
2017-03-25T04:10:03.324Z,99.99
2017-03-25T04:15:03.030Z,99.99
2017-03-25T04:20:03.589Z,99.99
2017-03-25T04:25:03.233Z,99.99
2017-03-25T04:30:03.065Z,99.99
2017-03-25T04:35:03.672Z,99.99
2017-03-25T04:40:03.422Z,99.99
2017-03-25T04:45:02.996Z,99.99
2017-03-25T04:50:03.719Z,99.99
2017-03-25T04:55:03.342Z,99.99
2017-03-25T05:00:02.928Z,99.99
2017-03-25T05:05:03.905Z,99.99
2017-03-25T05:10:03.687Z,99.99
2017-03-25T05:15:03.396Z,99.99
2017-03-25T05:20:02.935Z,99.99
2017-03-25T05:25:03.653Z,99.99
2017-03-25T05:30:03.496Z,99.99
2017-03-25T05:35:03.124Z,99.99
2017-03-25T05:40:02.803Z,99.99
2017-03-25T05:45:03.343Z,99.99
2017-03-25T05:50:03.064Z,99.99
2017-03-25T05:55:03.685Z,99.99
2017-03-25T06:00:03.261Z,99.99
2017-03-25T06:05:02.791Z,99.99
2017-03-25T06:10:03.486Z,99.99
2017-03-25T06:15:03.291Z,99.99
2017-03-25T06:20:02.854Z,99.99
2017-03-25T06:25:03.547Z,99.99
2017-03-25T06:30:03.242Z,99.99
2017-03-25T06:35:02.905Z,99.99
2017-03-25T06:40:03.579Z,99.99
2017-03-25T06:45:03.315Z,99.99
2017-03-25T06:50:02.817Z,99.99
2017-03-25T06:55:03.540Z,99.99
2017-03-25T07:00:03.255Z,99.99
2017-03-25T07:05:03.046Z,99.99
2017-03-25T07:10:02.900Z,99.99
2017-03-25T07:15:03.576Z,99.99
2017-03-25T07:20:03.263Z,99.99
2017-03-25T07:25:02.809Z,99.99
2017-03-25T07:30:03.586Z,99.99
2017-03-25T07:35:03.321Z,99.99
2017-03-25T07:40:03.037Z,99.99
2017-03-25T07:45:02.826Z,99.99
2017-03-25T07:50:03.563Z,99.99
2017-03-25T07:55:03.236Z,98.08
2017-03-25T08:00:02.827Z,94.12
2017-03-25T08:05:03.472Z,90.35
2017-03-25T08:10:03.193Z,89.15
2017-03-25T08:15:02.744Z,86.66
2017-03-25T08:20:03.437Z,82.4
2017-03-25T08:25:03.107Z,80.43
2017-03-25T08:30:03.751Z,77.4
2017-03-25T08:35:03.430Z,75.01
2017-03-25T08:40:03.175Z,72.84
2017-03-25T08:45:02.829Z,71.63
2017-03-25T08:50:03.540Z,70.51
2017-03-25T08:55:03.114Z,69.62
2017-03-25T09:00:02.823Z,68.02
2017-03-25T09:05:03.479Z,67.16
2017-03-25T09:10:03.269Z,66.3
2017-03-25T09:15:02.808Z,64.66
2017-03-25T09:20:03.427Z,64.22
2017-03-25T09:25:03.019Z,62.1
2017-03-25T09:30:03.775Z,62.9
2017-03-25T09:35:03.488Z,61.71
2017-03-25T09:40:03.121Z,59.72
2017-03-25T09:45:02.751Z,58.47
2017-03-25T09:50:03.550Z,55.29
2017-03-25T09:55:03.388Z,55.93
2017-03-25T10:00:02.980Z,56.22
2017-03-25T10:05:03.557Z,56.15
2017-03-25T10:10:03.424Z,55.19
2017-03-25T10:15:03.018Z,54.1
2017-03-25T10:20:03.559Z,53.91
2017-03-25T10:25:03.447Z,52.97
2017-03-25T10:30:03.135Z,50.47
2017-03-25T10:35:02.788Z,51.76
2017-03-25T10:40:02.999Z,53.31
2017-03-25T10:45:03.722Z,53.09
2017-03-25T10:50:03.356Z,54.27
2017-03-25T10:55:03.103Z,52.4
2017-03-25T11:00:03.094Z,51.84
2017-03-25T11:05:03.770Z,51
2017-03-25T11:10:03.622Z,50.35
2017-03-25T11:15:03.460Z,46.78
2017-03-25T11:20:03.246Z,47.55
2017-03-25T11:25:03.276Z,49.41
2017-03-25T11:30:03.154Z,47.8
2017-03-25T11:35:03.198Z,48.37
2017-03-25T11:40:03.038Z,47
2017-03-25T11:45:02.972Z,45.72
2017-03-25T11:50:02.826Z,46.4
2017-03-25T11:55:03.102Z,45.53
2017-03-25T12:00:03.289Z,44.81
2017-03-25T12:05:03.048Z,46.15
2017-03-25T12:10:03.099Z,45.72
2017-03-25T12:15:03.188Z,44.56
2017-03-25T12:20:03.519Z,43.21
2017-03-25T12:25:02.871Z,43.81
2017-03-25T12:30:02.789Z,42.94
2017-03-25T12:35:03.086Z,41.88
2017-03-25T12:40:03.669Z,42.25
2017-03-25T12:45:02.787Z,43.79
2017-03-25T12:50:02.965Z,43.02
2017-03-25T12:55:02.811Z,42.93
2017-03-25T13:00:03.688Z,42.35
2017-03-25T13:05:03.422Z,42.54
2017-03-25T13:10:02.892Z,42.25
2017-03-25T13:15:03.856Z,42.35
2017-03-25T13:20:03.626Z,41.48
2017-03-25T13:25:03.296Z,40.49
2017-03-25T13:30:03.107Z,40.88
2017-03-25T13:35:03.825Z,40.78
2017-03-25T13:40:03.567Z,39.89
2017-03-25T13:45:03.223Z,39.7
2017-03-25T13:50:02.992Z,40.09
2017-03-25T13:55:03.738Z,37.95
2017-03-25T14:00:03.741Z,38.53
2017-03-25T14:05:03.525Z,39.01
2017-03-25T14:10:02.870Z,38.53
2017-03-25T14:15:03.030Z,37.16
2017-03-25T14:20:03.282Z,37.54
2017-03-25T14:25:03.513Z,39.11
2017-03-25T14:30:03.232Z,38.89
2017-03-25T14:35:03.779Z,39.28
2017-03-25T14:40:02.895Z,39.36
2017-03-25T14:45:03.255Z,38.78
2017-03-25T14:50:03.146Z,38.74
2017-03-25T14:55:02.758Z,38.74
2017-03-25T15:00:03.604Z,39.41
2017-03-25T15:05:02.866Z,39.01
2017-03-25T15:10:03.214Z,39.18
2017-03-25T15:15:03.607Z,39.95
2017-03-25T15:20:03.407Z,41.12
2017-03-25T15:25:02.991Z,41.49
2017-03-25T15:30:03.286Z,41.49
2017-03-25T15:35:02.908Z,42.73
2017-03-25T15:40:03.613Z,41.75
2017-03-25T15:45:02.997Z,42.81
2017-03-25T15:50:03.305Z,43.77
2017-03-25T15:55:03.334Z,43.27
2017-03-25T16:00:03.509Z,43.94
2017-03-25T16:05:03.367Z,44.03
2017-03-25T16:10:03.598Z,44.4
2017-03-25T16:15:03.735Z,44.78
2017-03-25T16:20:02.932Z,44.66
2017-03-25T16:25:03.241Z,45.02
2017-03-25T16:30:03.425Z,45.98
2017-03-25T16:35:02.759Z,46.46
2017-03-25T16:40:03.158Z,46.82
2017-03-25T16:45:03.410Z,47.49
2017-03-25T16:50:03.498Z,48.44
2017-03-25T16:55:03.744Z,49
2017-03-25T17:00:03.484Z,49.29
2017-03-25T17:05:03.326Z,49.55
2017-03-25T17:10:03.144Z,50.02
2017-03-25T17:15:02.908Z,50.19
2017-03-25T17:20:03.558Z,51.05
2017-03-25T17:25:03.383Z,51.7
2017-03-25T17:30:03.120Z,52.26
2017-03-25T17:35:03.674Z,52.65
2017-03-25T17:40:03.564Z,53.2
2017-03-25T17:45:03.267Z,53.86
2017-03-25T17:50:02.986Z,54.53
2017-03-25T17:55:03.613Z,55.18
2017-03-25T18:00:03.286Z,55.75
2017-03-25T18:05:03.028Z,56.67
2017-03-25T18:10:02.897Z,57.34
2017-03-25T18:15:03.635Z,57.92
2017-03-25T18:20:03.297Z,58.36
2017-03-25T18:25:03.019Z,58.94
2017-03-25T18:30:03.695Z,59.7
2017-03-25T18:35:03.379Z,60.14
2017-03-25T18:40:03.175Z,60.52
2017-03-25T18:45:02.851Z,60.91
2017-03-25T18:50:03.402Z,61.38
2017-03-25T18:55:02.925Z,61.73
2017-03-25T19:00:03.520Z,62.21
2017-03-25T19:05:03.230Z,62.59
2017-03-25T19:10:02.940Z,63.26
2017-03-25T19:15:03.619Z,63.54
2017-03-25T19:20:03.384Z,64.08
2017-03-25T19:25:03.119Z,64.28
2017-03-25T19:30:02.775Z,64.56
2017-03-25T19:35:03.430Z,65.03
2017-03-25T19:40:03.171Z,65.32
2017-03-25T19:45:02.783Z,65.61
2017-03-25T19:50:03.388Z,65.95
2017-03-25T19:55:02.979Z,66.43
2017-03-25T20:00:02.797Z,66.91
2017-03-25T20:05:03.475Z,67.29
2017-03-25T20:10:03.211Z,67.86
2017-03-25T20:15:02.928Z,68.52
2017-03-25T20:20:03.610Z,69.15
2017-03-25T20:25:03.311Z,69.54
2017-03-25T20:30:02.970Z,70.1
2017-03-25T20:35:03.568Z,70.58
2017-03-25T20:40:03.295Z,71.25
2017-03-25T20:45:02.901Z,71.63
2017-03-25T20:50:03.661Z,72.11
2017-03-25T20:55:03.213Z,72.67
2017-03-25T21:00:02.942Z,73.59
2017-03-25T21:05:03.611Z,74.16
2017-03-25T21:10:03.402Z,74.63
2017-03-25T21:15:03.051Z,75.21
2017-03-25T21:20:02.809Z,75.59
2017-03-25T21:25:03.420Z,76.35
2017-03-25T21:30:03.078Z,77.07
2017-03-25T21:35:03.725Z,77.55
2017-03-25T21:40:03.360Z,78.02
2017-03-25T21:45:03.149Z,79.35
2017-03-25T21:50:02.751Z,80.11
2017-03-25T21:55:03.335Z,81.25
2017-03-25T22:00:03.040Z,82.29
2017-03-25T22:05:03.640Z,84.1
2017-03-25T22:10:03.306Z,84.86
2017-03-25T22:15:03.077Z,85.96
2017-03-25T22:20:02.757Z,87.48
2017-03-25T22:25:03.343Z,90.14
2017-03-25T22:30:03.101Z,93.84
2017-03-25T22:35:02.877Z,97.55
2017-03-25T22:40:03.704Z,99.99
2017-03-25T22:45:03.515Z,99.99
2017-03-25T22:50:03.252Z,99.99
2017-03-25T22:55:02.842Z,99.99
2017-03-25T23:00:03.552Z,99.99
2017-03-25T23:05:03.317Z,99.99
2017-03-25T23:10:02.902Z,99.99
2017-03-25T23:15:03.564Z,99.99
2017-03-25T23:20:03.331Z,99.99
2017-03-25T23:25:03.027Z,99.99
2017-03-25T23:30:03.669Z,99.99
2017-03-25T23:35:03.330Z,99.99
2017-03-25T23:40:03.105Z,99.99
2017-03-25T23:45:02.788Z,99.99
2017-03-25T23:50:03.439Z,99.99
2017-03-25T23:55:03.042Z,99.99
